Terminal Aerodrome Forecast
Issued by NWS

Home | Current Version | Previous Version | Graphics & Text | Print | Product List | Glossary On
Versions: 1 2 3 4 5 6 7 8 9 10 11 12 13 14 15 16 17 18
287
FTUS43 KABR 192337
TAFATY
TAF
KATY 192337Z 2000/2024 33014KT P6SM SCT110
     FM200200 26004KT P6SM SCT200
     FM201400 35008KT P6SM SCT200=

USA.gov is the U.S. government's official web portal to all federal, state and local government web resources and services.